Time;durP1;ratioP1;P1;durP2;ratioP2;P2;SDS_P1;SDS_P2;PMS_P1;PMS_P2;Temp;Humidity;BMP_temperature;BMP_pressure;BME280_temperature;BME280_humidity;BME280_pressure;Samples;Min_cycle;Max_cycle;Signal;HPM_P1;HPM_P2
2023/07/30 00:00:32;;;;;;;13.13;2.30;;;;;;;;;;4974373;28;20055;-68
2023/07/30 00:02:57;;;;;;;11.07;1.60;;;;;;;;;;4975229;28;20121;-68
2023/07/30 00:05:23;;;;;;;10.65;1.35;;;;;;;;;;4974566;28;20039;-68
2023/07/30 00:07:48;;;;;;;11.25;2.05;;;;;;;;;;4974419;28;20101;-69
2023/07/30 00:10:15;;;;;;;19.08;1.92;;;;;;;;;;4973327;28;20476;-68
2023/07/30 00:12:41;;;;;;;13.13;1.67;;;;;;;;;;4977294;28;20070;-68
2023/07/30 00:15:06;;;;;;;8.18;1.65;;;;;;;;;;5005620;28;20113;-68
2023/07/30 00:17:32;;;;;;;11.75;1.63;;;;;;;;;;4974743;28;20097;-68
2023/07/30 00:19:57;;;;;;;12.43;1.80;;;;;;;;;;4974722;28;20047;-68
2023/07/30 00:22:23;;;;;;;10.93;1.67;;;;;;;;;;4981808;28;20026;-68
2023/07/30 00:24:48;;;;;;;13.60;2.22;;;;;;;;;;4974595;28;20042;-68
2023/07/30 00:27:13;;;;;;;8.43;1.70;;;;;;;;;;4974174;28;20034;-69
2023/07/30 00:29:39;;;;;;;10.55;1.83;;;;;;;;;;4974402;28;20073;-68
2023/07/30 00:32:04;;;;;;;9.52;1.83;;;;;;;;;;4979525;28;20030;-68
2023/07/30 00:34:30;;;;;;;15.75;2.20;;;;;;;;;;4974018;28;20051;-68
2023/07/30 00:36:55;;;;;;;8.55;1.60;;;;;;;;;;4973667;28;20050;-68
2023/07/30 00:39:20;;;;;;;9.27;1.60;;;;;;;;;;4974266;28;20038;-68
2023/07/30 00:41:46;;;;;;;13.57;1.65;;;;;;;;;;4974528;28;20057;-68
2023/07/30 00:44:11;;;;;;;7.15;1.55;;;;;;;;;;4976466;28;20387;-68
2023/07/30 00:46:37;;;;;;;16.45;1.77;;;;;;;;;;4972854;28;20482;-68
2023/07/30 00:49:02;;;;;;;9.75;2.00;;;;;;;;;;4970620;28;20042;-68
2023/07/30 00:51:29;;;;;;;9.57;1.92;;;;;;;;;;4971961;28;20089;-68
2023/07/30 00:53:55;;;;;;;17.27;1.70;;;;;;;;;;4975316;28;20594;-68
2023/07/30 00:56:20;;;;;;;10.15;2.05;;;;;;;;;;4973893;28;20130;-68
2023/07/30 00:58:47;;;;;;;14.80;2.38;;;;;;;;;;4973460;28;20066;-69
2023/07/30 01:01:13;;;;;;;11.95;2.20;;;;;;;;;;4971975;28;20399;-68
2023/07/30 01:03:39;;;;;;;9.32;1.63;;;;;;;;;;4975960;28;20043;-68
2023/07/30 01:06:04;;;;;;;16.20;2.20;;;;;;;;;;4973917;28;20043;-68
2023/07/30 01:08:30;;;;;;;15.02;2.00;;;;;;;;;;4974020;28;20482;-68
2023/07/30 01:10:56;;;;;;;9.30;1.90;;;;;;;;;;5005141;28;20399;-68
2023/07/30 01:13:21;;;;;;;9.55;1.95;;;;;;;;;;4975291;28;20035;-68
2023/07/30 01:15:47;;;;;;;13.50;2.22;;;;;;;;;;4972798;28;20130;-68
2023/07/30 01:18:12;;;;;;;8.25;2.00;;;;;;;;;;4974206;28;20035;-68
2023/07/30 01:20:38;;;;;;;9.07;1.63;;;;;;;;;;4973965;28;20038;-68
2023/07/30 01:23:03;;;;;;;15.65;2.13;;;;;;;;;;4970720;28;20058;-68
2023/07/30 01:25:30;;;;;;;9.82;2.05;;;;;;;;;;4976693;28;20066;-68
2023/07/30 01:27:59;;;;;;;12.80;1.90;;;;;;;;;;4975954;28;20038;-68
2023/07/30 01:30:30;;;;;;;10.65;1.70;;;;;;;;;;4976192;28;20090;-68
2023/07/30 01:32:56;;;;;;;15.02;1.90;;;;;;;;;;4970879;28;20039;-68
2023/07/30 01:35:26;;;;;;;11.18;2.28;;;;;;;;;;4975985;28;20041;-69
2023/07/30 01:37:52;;;;;;;13.02;2.28;;;;;;;;;;4978257;28;20046;-68
2023/07/30 01:40:17;;;;;;;16.67;2.20;;;;;;;;;;4976168;28;20493;-68
2023/07/30 01:42:43;;;;;;;9.85;1.85;;;;;;;;;;4979395;28;20038;-68
2023/07/30 01:45:08;;;;;;;8.15;1.70;;;;;;;;;;4976947;28;20054;-68
2023/07/30 01:47:33;;;;;;;9.45;2.00;;;;;;;;;;4977126;28;20045;-68
2023/07/30 01:49:59;;;;;;;17.67;2.45;;;;;;;;;;4987403;28;20378;-68
2023/07/30 01:52:25;;;;;;;13.75;2.00;;;;;;;;;;4978277;28;20038;-69
2023/07/30 01:54:50;;;;;;;8.57;1.77;;;;;;;;;;4982991;28;20113;-68
2023/07/30 01:57:16;;;;;;;10.93;1.90;;;;;;;;;;4976475;28;20033;-68
2023/07/30 01:59:41;;;;;;;18.90;2.08;;;;;;;;;;4976429;28;20507;-68
2023/07/30 02:02:07;;;;;;;10.77;2.00;;;;;;;;;;4976851;28;20054;-68
2023/07/30 02:04:33;;;;;;;7.78;1.70;;;;;;;;;;4979197;28;20042;-69
2023/07/30 02:06:58;;;;;;;11.82;2.33;;;;;;;;;;4972619;28;20050;-68
2023/07/30 02:09:23;;;;;;;10.38;2.03;;;;;;;;;;4977096;28;20035;-68
2023/07/30 02:11:49;;;;;;;12.95;1.77;;;;;;;;;;4977097;28;20076;-68
2023/07/30 02:14:14;;;;;;;10.73;2.67;;;;;;;;;;4976670;28;20047;-68
2023/07/30 02:16:40;;;;;;;9.73;2.20;;;;;;;;;;4988751;28;20035;-68
2023/07/30 02:19:05;;;;;;;14.75;2.47;;;;;;;;;;4977168;28;20035;-68
2023/07/30 02:21:32;;;;;;;15.48;1.85;;;;;;;;;;4975330;28;20050;-68
2023/07/30 02:23:59;;;;;;;10.38;2.05;;;;;;;;;;4983095;28;20053;-68
2023/07/30 02:26:24;;;;;;;14.70;2.78;;;;;;;;;;4976626;28;20428;-68
2023/07/30 02:28:49;;;;;;;11.30;1.90;;;;;;;;;;4976509;28;20133;-68
2023/07/30 02:31:15;;;;;;;15.98;2.35;;;;;;;;;;4976552;28;20521;-68
2023/07/30 02:33:40;;;;;;;16.92;2.55;;;;;;;;;;4976470;28;20054;-68
2023/07/30 02:36:05;;;;;;;16.70;2.38;;;;;;;;;;4976104;28;20070;-68
2023/07/30 02:38:31;;;;;;;14.95;2.03;;;;;;;;;;4976385;28;20085;-69
2023/07/30 02:40:56;;;;;;;10.80;1.77;;;;;;;;;;4976275;28;20462;-68
2023/07/30 02:43:21;;;;;;;13.25;2.28;;;;;;;;;;4978008;28;20070;-68
2023/07/30 02:45:48;;;;;;;14.85;2.58;;;;;;;;;;4976262;28;20048;-68
2023/07/30 02:48:13;;;;;;;11.00;2.20;;;;;;;;;;4976211;28;20038;-68
2023/07/30 02:50:38;;;;;;;13.43;1.80;;;;;;;;;;4976019;28;20399;-68
2023/07/30 02:53:04;;;;;;;12.75;1.85;;;;;;;;;;4976348;28;20471;-68
2023/07/30 02:55:29;;;;;;;15.20;3.15;;;;;;;;;;4983615;28;20086;-68
2023/07/30 02:57:54;;;;;;;9.13;2.28;;;;;;;;;;4975169;28;20046;-68
2023/07/30 03:00:20;;;;;;;8.35;1.70;;;;;;;;;;4972767;28;20055;-69
2023/07/30 03:02:45;;;;;;;15.73;2.10;;;;;;;;;;4975410;28;20059;-68
2023/07/30 03:05:10;;;;;;;14.60;2.00;;;;;;;;;;4969508;28;20031;-69
2023/07/30 03:07:36;;;;;;;13.50;2.22;;;;;;;;;;4977483;28;20043;-68
2023/07/30 03:10:01;;;;;;;12.23;2.10;;;;;;;;;;4975883;28;20042;-68
2023/07/30 03:12:26;;;;;;;18.20;2.33;;;;;;;;;;4975703;28;20376;-68
2023/07/30 03:14:52;;;;;;;11.27;1.98;;;;;;;;;;4975622;28;20035;-68
2023/07/30 03:17:17;;;;;;;14.55;2.13;;;;;;;;;;4977605;28;20046;-68
2023/07/30 03:19:42;;;;;;;13.07;2.00;;;;;;;;;;4975618;28;20042;-68
2023/07/30 03:22:08;;;;;;;16.45;2.28;;;;;;;;;;4976029;28;20034;-68
2023/07/30 03:24:33;;;;;;;17.27;2.10;;;;;;;;;;4975264;28;20460;-69
2023/07/30 03:26:58;;;;;;;12.38;1.95;;;;;;;;;;4975583;28;20046;-68
2023/07/30 03:29:24;;;;;;;18.23;2.70;;;;;;;;;;4975566;28;20105;-69
2023/07/30 03:31:49;;;;;;;13.70;2.25;;;;;;;;;;4975606;28;20045;-68
2023/07/30 03:34:14;;;;;;;12.52;2.30;;;;;;;;;;4975121;28;20047;-69
2023/07/30 03:36:40;;;;;;;17.70;2.40;;;;;;;;;;4973515;28;20402;-69
2023/07/30 03:39:05;;;;;;;17.55;3.10;;;;;;;;;;4975472;28;20066;-68
2023/07/30 03:41:31;;;;;;;14.73;2.10;;;;;;;;;;4975487;28;20045;-68
2023/07/30 03:43:56;;;;;;;15.05;1.92;;;;;;;;;;4975059;28;20046;-69
2023/07/30 03:46:21;;;;;;;12.57;2.08;;;;;;;;;;4974437;28;20031;-68
2023/07/30 03:48:47;;;;;;;12.40;2.20;;;;;;;;;;4975312;28;20035;-68
2023/07/30 03:51:12;;;;;;;10.15;1.77;;;;;;;;;;4975198;28;20041;-68
2023/07/30 03:53:37;;;;;;;14.68;2.53;;;;;;;;;;4977570;28;20038;-68
2023/07/30 03:56:03;;;;;;;23.00;2.70;;;;;;;;;;4978069;28;20070;-68
2023/07/30 03:58:30;;;;;;;12.30;2.10;;;;;;;;;;4975106;28;20085;-68
2023/07/30 04:00:56;;;;;;;10.07;2.00;;;;;;;;;;4973783;28;20054;-68
2023/07/30 04:03:21;;;;;;;13.93;1.90;;;;;;;;;;4974590;28;20035;-69
2023/07/30 04:05:46;;;;;;;11.77;2.13;;;;;;;;;;4973843;28;20108;-68
2023/07/30 04:08:12;;;;;;;10.25;1.83;;;;;;;;;;4981000;28;20034;-68
2023/07/30 04:10:37;;;;;;;17.95;2.40;;;;;;;;;;4974562;28;20165;-68
2023/07/30 04:13:02;;;;;;;14.43;2.20;;;;;;;;;;4973196;28;20553;-68
2023/07/30 04:15:27;;;;;;;11.65;1.95;;;;;;;;;;4974448;28;20463;-68
2023/07/30 04:17:53;;;;;;;8.45;1.70;;;;;;;;;;4962608;28;20038;-68
2023/07/30 04:20:19;;;;;;;14.93;1.95;;;;;;;;;;4974765;28;20501;-68
2023/07/30 04:22:44;;;;;;;13.40;2.55;;;;;;;;;;4974335;28;20400;-68
2023/07/30 04:25:13;;;;;;;16.63;2.20;;;;;;;;;;4974533;28;20066;-68
2023/07/30 04:27:38;;;;;;;9.50;1.80;;;;;;;;;;4972638;28;20054;-69
2023/07/30 04:30:07;;;;;;;16.88;1.83;;;;;;;;;;4972942;28;20031;-68
2023/07/30 04:32:32;;;;;;;20.83;2.72;;;;;;;;;;4973043;28;20052;-68
2023/07/30 04:34:57;;;;;;;10.05;1.92;;;;;;;;;;4973715;28;20030;-69
2023/07/30 04:37:23;;;;;;;8.07;1.60;;;;;;;;;;4978964;28;20457;-69
2023/07/30 04:39:48;;;;;;;7.70;1.40;;;;;;;;;;4973101;28;20530;-69
2023/07/30 04:42:15;;;;;;;9.73;1.20;;;;;;;;;;4974183;28;20403;-68
2023/07/30 04:44:40;;;;;;;6.25;1.27;;;;;;;;;;4974392;28;20109;-69
2023/07/30 04:47:06;;;;;;;11.38;1.65;;;;;;;;;;4980180;28;20196;-68
2023/07/30 04:49:31;;;;;;;8.98;1.70;;;;;;;;;;4972687;28;20496;-68
2023/07/30 04:51:56;;;;;;;6.82;1.50;;;;;;;;;;4974075;28;20130;-68
2023/07/30 04:54:22;;;;;;;8.60;1.25;;;;;;;;;;4973748;28;20109;-68
2023/07/30 04:56:47;;;;;;;5.53;1.27;;;;;;;;;;4974045;28;20227;-69
2023/07/30 04:59:12;;;;;;;9.73;1.45;;;;;;;;;;4975130;28;20117;-69
2023/07/30 05:01:38;;;;;;;8.13;1.35;;;;;;;;;;4963137;28;20134;-68
2023/07/30 05:04:03;;;;;;;12.40;1.63;;;;;;;;;;4974133;28;20070;-68
2023/07/30 05:06:28;;;;;;;6.15;1.60;;;;;;;;;;4973863;28;20360;-68
2023/07/30 05:08:54;;;;;;;8.70;2.08;;;;;;;;;;4973973;28;20047;-68
2023/07/30 05:11:19;;;;;;;7.00;1.38;;;;;;;;;;4973666;28;20457;-68
2023/07/30 05:13:45;;;;;;;8.98;1.73;;;;;;;;;;4973872;28;20030;-68
2023/07/30 05:16:10;;;;;;;13.80;1.83;;;;;;;;;;4974136;28;20069;-68
2023/07/30 05:18:35;;;;;;;7.90;1.27;;;;;;;;;;4974200;28;20043;-69
2023/07/30 05:21:01;;;;;;;5.20;1.58;;;;;;;;;;4972605;28;20033;-68
2023/07/30 05:23:26;;;;;;;5.68;1.27;;;;;;;;;;4974256;28;20069;-69
2023/07/30 05:25:51;;;;;;;10.45;1.70;;;;;;;;;;4973860;28;20066;-68
2023/07/30 05:28:17;;;;;;;10.02;1.42;;;;;;;;;;4973507;28;20062;-68
2023/07/30 05:30:42;;;;;;;10.05;1.73;;;;;;;;;;4973134;28;20034;-69
2023/07/30 05:33:07;;;;;;;10.93;1.63;;;;;;;;;;4974285;28;20039;-68
2023/07/30 05:35:33;;;;;;;7.03;1.50;;;;;;;;;;4973363;28;20030;-68
2023/07/30 05:37:58;;;;;;;4.45;1.27;;;;;;;;;;4972386;28;20043;-68
2023/07/30 05:40:23;;;;;;;12.82;1.92;;;;;;;;;;4974767;28;20165;-69
2023/07/30 05:42:49;;;;;;;8.20;1.85;;;;;;;;;;4973684;28;20084;-68
2023/07/30 05:45:14;;;;;;;10.40;1.60;;;;;;;;;;4973552;28;20042;-68
2023/07/30 05:47:40;;;;;;;14.05;1.23;;;;;;;;;;4973708;28;20043;-68
2023/07/30 05:50:06;;;;;;;11.30;2.10;;;;;;;;;;4973546;28;20047;-68
2023/07/30 05:52:31;;;;;;;17.95;3.15;;;;;;;;;;4973791;28;20112;-68
2023/07/30 05:54:57;;;;;;;11.13;2.10;;;;;;;;;;4973379;28;20485;-69
2023/07/30 05:57:22;;;;;;;8.00;1.63;;;;;;;;;;4977458;28;20491;-69
2023/07/30 05:59:47;;;;;;;12.63;1.90;;;;;;;;;;4973170;28;20101;-68
2023/07/30 06:02:13;;;;;;;9.40;1.85;;;;;;;;;;4973774;28;20083;-68
2023/07/30 06:04:38;;;;;;;6.43;1.60;;;;;;;;;;4973556;28;20074;-69
2023/07/30 06:07:04;;;;;;;9.77;2.00;;;;;;;;;;4973034;28;20046;-68
2023/07/30 06:09:29;;;;;;;14.00;2.70;;;;;;;;;;4975403;28;20047;-69
2023/07/30 06:11:56;;;;;;;10.73;1.73;;;;;;;;;;4977178;28;20386;-68
2023/07/30 06:14:22;;;;;;;8.70;1.60;;;;;;;;;;4976677;28;20120;-68
2023/07/30 06:16:47;;;;;;;8.00;1.60;;;;;;;;;;4977012;28;20131;-68
2023/07/30 06:19:12;;;;;;;12.77;1.60;;;;;;;;;;4976442;28;20049;-69
2023/07/30 06:21:37;;;;;;;8.07;1.75;;;;;;;;;;4976808;28;20113;-68
2023/07/30 06:24:03;;;;;;;15.13;2.25;;;;;;;;;;4976950;28;20077;-69
2023/07/30 06:26:28;;;;;;;10.55;1.70;;;;;;;;;;4976540;28;20055;-69
2023/07/30 06:28:54;;;;;;;8.25;1.67;;;;;;;;;;4976148;28;20455;-69
2023/07/30 06:31:19;;;;;;;16.85;2.08;;;;;;;;;;4976560;28;20050;-68
2023/07/30 06:33:44;;;;;;;9.50;1.75;;;;;;;;;;4975488;28;20047;-68
2023/07/30 06:36:10;;;;;;;9.23;1.50;;;;;;;;;;4977920;28;20113;-68
2023/07/30 06:38:35;;;;;;;8.82;1.75;;;;;;;;;;4980606;28;20089;-68
2023/07/30 06:41:00;;;;;;;6.63;1.50;;;;;;;;;;4976336;28;20034;-69
2023/07/30 06:43:26;;;;;;;7.65;1.88;;;;;;;;;;4976308;28;20051;-69
2023/07/30 06:45:52;;;;;;;6.47;1.50;;;;;;;;;;4975999;28;20046;-69
2023/07/30 06:48:18;;;;;;;6.22;1.73;;;;;;;;;;4976351;28;20182;-69
2023/07/30 06:50:43;;;;;;;8.45;2.10;;;;;;;;;;4975774;28;20478;-69
2023/07/30 06:53:08;;;;;;;11.25;2.03;;;;;;;;;;4976319;28;20038;-69
2023/07/30 06:55:34;;;;;;;9.13;1.90;;;;;;;;;;4972289;28;20039;-69
2023/07/30 06:57:59;;;;;;;7.05;1.73;;;;;;;;;;4973149;28;20147;-69
2023/07/30 07:00:24;;;;;;;3.92;1.55;;;;;;;;;;4975281;28;20049;-69
2023/07/30 07:02:50;;;;;;;10.15;1.80;;;;;;;;;;4975781;28;20062;-69
2023/07/30 07:05:15;;;;;;;8.80;1.75;;;;;;;;;;4974469;28;20438;-69
2023/07/30 07:07:41;;;;;;;11.57;2.25;;;;;;;;;;5006414;28;20406;-69
2023/07/30 07:10:06;;;;;;;9.90;2.20;;;;;;;;;;4974492;28;20045;-69
2023/07/30 07:12:32;;;;;;;6.95;1.90;;;;;;;;;;4975475;28;20410;-69
2023/07/30 07:14:58;;;;;;;8.38;1.65;;;;;;;;;;4975336;28;20069;-70
2023/07/30 07:17:24;;;;;;;9.15;2.15;;;;;;;;;;4975843;28;20039;-69
2023/07/30 07:19:49;;;;;;;9.30;1.88;;;;;;;;;;4976521;28;20035;-70
2023/07/30 07:22:15;;;;;;;7.75;1.75;;;;;;;;;;4975433;28;20086;-69
2023/07/30 07:24:40;;;;;;;7.90;2.22;;;;;;;;;;4975086;28;20035;-71
2023/07/30 07:27:06;;;;;;;8.48;1.80;;;;;;;;;;4975900;28;20047;-70
2023/07/30 07:29:31;;;;;;;9.15;2.00;;;;;;;;;;4975369;28;20043;-69
2023/07/30 07:31:56;;;;;;;10.02;1.92;;;;;;;;;;4969466;28;20050;-70
2023/07/30 07:34:22;;;;;;;8.70;1.98;;;;;;;;;;4975572;28;20039;-69
2023/07/30 07:36:47;;;;;;;5.82;1.73;;;;;;;;;;4974811;28;20053;-70
2023/07/30 07:39:12;;;;;;;5.55;1.63;;;;;;;;;;4975265;28;20042;-69
2023/07/30 07:41:38;;;;;;;8.82;1.90;;;;;;;;;;4975577;28;20045;-69
2023/07/30 07:44:03;;;;;;;6.65;2.03;;;;;;;;;;4977869;28;20138;-70
2023/07/30 07:46:29;;;;;;;11.60;2.53;;;;;;;;;;4973542;28;20038;-70
2023/07/30 07:48:54;;;;;;;7.40;1.88;;;;;;;;;;4973935;28;20058;-69
2023/07/30 07:51:19;;;;;;;7.88;2.17;;;;;;;;;;4974869;28;20046;-68
2023/07/30 07:53:45;;;;;;;9.45;2.55;;;;;;;;;;4974911;28;20034;-69
2023/07/30 07:56:10;;;;;;;9.75;2.70;;;;;;;;;;4975286;28;20049;-69
2023/07/30 07:58:36;;;;;;;6.65;1.90;;;;;;;;;;4974217;28;20038;-69
2023/07/30 08:01:01;;;;;;;8.38;2.47;;;;;;;;;;4963013;28;20403;-69
2023/07/30 08:03:26;;;;;;;8.25;2.17;;;;;;;;;;4969153;28;20380;-69
2023/07/30 08:05:52;;;;;;;12.30;2.77;;;;;;;;;;4972339;28;20043;-70
2023/07/30 08:08:17;;;;;;;11.02;2.65;;;;;;;;;;4971404;28;20051;-70
2023/07/30 08:10:44;;;;;;;9.90;2.20;;;;;;;;;;4976636;28;20047;-70
2023/07/30 08:13:10;;;;;;;6.80;2.22;;;;;;;;;;4972067;28;20037;-70
2023/07/30 08:15:35;;;;;;;7.75;2.60;;;;;;;;;;4971497;28;20153;-69
2023/07/30 08:18:01;;;;;;;8.30;2.20;;;;;;;;;;4953205;28;20042;-71
2023/07/30 08:20:26;;;;;;;9.18;2.25;;;;;;;;;;4967550;28;20491;-70
2023/07/30 08:22:51;;;;;;;9.15;2.13;;;;;;;;;;4973356;28;20046;-69
2023/07/30 08:25:17;;;;;;;6.53;1.98;;;;;;;;;;4973894;28;20031;-69
2023/07/30 08:27:42;;;;;;;8.40;2.72;;;;;;;;;;4973515;28;20147;-70
2023/07/30 08:30:08;;;;;;;7.53;2.00;;;;;;;;;;4973046;28;20041;-70
2023/07/30 08:32:33;;;;;;;12.30;2.30;;;;;;;;;;4974136;28;20125;-70
2023/07/30 08:34:58;;;;;;;6.13;2.53;;;;;;;;;;4974488;28;20043;-69
2023/07/30 08:37:24;;;;;;;7.03;2.40;;;;;;;;;;4973592;28;20042;-70
2023/07/30 08:39:49;;;;;;;5.88;2.25;;;;;;;;;;4974851;28;20048;-69
2023/07/30 08:42:14;;;;;;;6.75;2.30;;;;;;;;;;5003019;28;20035;-69
2023/07/30 08:44:40;;;;;;;6.68;2.55;;;;;;;;;;4972242;28;20375;-70
2023/07/30 08:47:05;;;;;;;11.13;2.67;;;;;;;;;;4973917;28;20045;-69
2023/07/30 08:49:32;;;;;;;11.30;2.92;;;;;;;;;;4973073;28;20035;-69
2023/07/30 08:51:58;;;;;;;13.82;3.08;;;;;;;;;;4976801;28;20030;-68
2023/07/30 08:54:24;;;;;;;9.73;2.63;;;;;;;;;;4972541;28;20114;-69
2023/07/30 08:56:50;;;;;;;8.23;2.38;;;;;;;;;;5005340;28;20073;-69
2023/07/30 08:59:16;;;;;;;9.25;2.58;;;;;;;;;;4972719;28;20035;-69
2023/07/30 09:01:43;;;;;;;11.70;2.53;;;;;;;;;;4975352;28;20050;-69
2023/07/30 09:04:09;;;;;;;9.93;2.65;;;;;;;;;;4972738;28;20058;-68
2023/07/30 09:06:34;;;;;;;9.98;2.58;;;;;;;;;;4971933;28;20513;-69
2023/07/30 09:08:59;;;;;;;13.27;2.65;;;;;;;;;;4973308;28;20039;-68
2023/07/30 09:11:28;;;;;;;11.95;2.22;;;;;;;;;;4972360;28;20070;-68
2023/07/30 09:13:57;;;;;;;17.05;3.00;;;;;;;;;;4979227;28;20591;-69
2023/07/30 09:16:25;;;;;;;9.80;2.60;;;;;;;;;;4969891;28;20037;-69
2023/07/30 09:18:52;;;;;;;9.85;2.80;;;;;;;;;;4960897;28;20047;-70
2023/07/30 09:21:18;;;;;;;7.03;2.00;;;;;;;;;;4974507;28;20035;-68
2023/07/30 09:23:45;;;;;;;10.38;2.85;;;;;;;;;;4973810;28;20136;-69
2023/07/30 09:26:11;;;;;;;12.60;2.53;;;;;;;;;;4977015;28;20507;-68
2023/07/30 09:28:37;;;;;;;7.60;2.15;;;;;;;;;;4972544;28;20039;-68
2023/07/30 09:31:03;;;;;;;8.15;2.28;;;;;;;;;;4972209;28;20050;-68
2023/07/30 09:33:29;;;;;;;6.32;1.83;;;;;;;;;;4972059;28;20038;-67
2023/07/30 09:35:55;;;;;;;8.65;1.80;;;;;;;;;;4972591;28;20042;-69
2023/07/30 09:38:20;;;;;;;9.95;2.25;;;;;;;;;;4973607;28;20046;-67
2023/07/30 09:40:49;;;;;;;12.95;2.47;;;;;;;;;;4971852;28;20446;-68
2023/07/30 09:43:14;;;;;;;8.40;2.08;;;;;;;;;;4973109;28;20077;-67
2023/07/30 09:45:40;;;;;;;8.95;2.30;;;;;;;;;;4977714;28;20046;-68
2023/07/30 09:48:06;;;;;;;8.63;2.13;;;;;;;;;;4977615;28;20046;-67
2023/07/30 09:50:33;;;;;;;11.77;3.78;;;;;;;;;;4977441;28;20031;-69
2023/07/30 09:52:58;;;;;;;13.25;4.05;;;;;;;;;;4977593;28;20047;-67
2023/07/30 09:55:24;;;;;;;8.90;2.38;;;;;;;;;;4976548;28;20497;-67
2023/07/30 09:57:49;;;;;;;7.40;2.38;;;;;;;;;;4977341;28;20054;-68
2023/07/30 10:00:15;;;;;;;9.73;2.08;;;;;;;;;;4977568;28;20475;-67
2023/07/30 10:02:44;;;;;;;8.52;2.20;;;;;;;;;;4977225;28;20042;-67
2023/07/30 10:05:17;;;;;;;9.68;2.58;;;;;;;;;;4977365;28;20121;-68
2023/07/30 10:07:55;;;;;;;9.02;2.47;;;;;;;;;;4976908;28;20058;-68
2023/07/30 10:10:21;;;;;;;8.93;2.13;;;;;;;;;;4977464;28;20352;-68
2023/07/30 10:12:47;;;;;;;12.65;2.13;;;;;;;;;;4976801;28;20047;-68
2023/07/30 10:15:13;;;;;;;15.38;2.60;;;;;;;;;;4977365;28;20049;-67
2023/07/30 10:17:38;;;;;;;7.97;2.17;;;;;;;;;;4976912;28;20034;-68
2023/07/30 10:20:26;;;;;;;6.70;1.48;;;;;;;;;;4976351;28;20105;-68
2023/07/30 10:22:53;;;;;;;4.32;1.67;;;;;;;;;;4975697;28;20242;-68
2023/07/30 10:25:39;;;;;;;6.57;1.70;;;;;;;;;;4976757;28;20046;-68
2023/07/30 10:28:05;;;;;;;7.97;1.70;;;;;;;;;;4976749;28;20050;-68
2023/07/30 10:30:32;;;;;;;5.05;1.45;;;;;;;;;;4976795;28;20043;-70
2023/07/30 10:33:02;;;;;;;5.32;1.67;;;;;;;;;;4975818;28;20038;-70
2023/07/30 10:35:46;;;;;;;10.63;1.88;;;;;;;;;;4969987;28;20046;-69
2023/07/30 10:38:17;;;;;;;5.25;1.45;;;;;;;;;;4965673;28;20050;-70
2023/07/30 10:41:00;;;;;;;3.13;1.13;;;;;;;;;;4976831;28;20038;-69
2023/07/30 10:43:30;;;;;;;3.93;1.33;;;;;;;;;;4975515;28;20035;-67
2023/07/30 10:45:55;;;;;;;2.95;1.00;;;;;;;;;;4976700;28;20019;-68
2023/07/30 10:48:33;;;;;;;2.75;0.95;;;;;;;;;;4976637;28;20039;-67
2023/07/30 10:51:00;;;;;;;3.45;1.00;;;;;;;;;;4975357;28;20039;-67
2023/07/30 10:53:25;;;;;;;1.42;0.82;;;;;;;;;;4976717;28;20049;-68
2023/07/30 10:55:52;;;;;;;1.40;0.68;;;;;;;;;;4976029;28;20035;-68
2023/07/30 10:58:18;;;;;;;1.33;0.60;;;;;;;;;;4975399;28;20039;-68
2023/07/30 11:00:43;;;;;;;1.60;0.50;;;;;;;;;;4975002;28;20061;-70
2023/07/30 11:03:08;;;;;;;1.45;0.50;;;;;;;;;;4975080;28;20035;-70
2023/07/30 11:05:34;;;;;;;0.30;0.30;;;;;;;;;;4976349;28;20031;-70
2023/07/30 11:07:59;;;;;;;0.52;0.40;;;;;;;;;;4976008;28;20474;-69
2023/07/30 11:10:24;;;;;;;0.38;0.30;;;;;;;;;;4975195;28;20031;-69
2023/07/30 11:12:50;;;;;;;0.43;0.35;;;;;;;;;;4975797;28;20034;-69
2023/07/30 11:15:16;;;;;;;0.30;0.30;;;;;;;;;;4976287;28;20038;-70
2023/07/30 11:17:44;;;;;;;0.50;0.30;;;;;;;;;;4974575;28;20093;-67
2023/07/30 11:20:22;;;;;;;1.15;0.20;;;;;;;;;;4974926;28;20097;-70
2023/07/30 11:22:47;;;;;;;0.38;0.30;;;;;;;;;;4974696;28;20054;-70
2023/07/30 11:25:17;;;;;;;0.35;0.30;;;;;;;;;;4976066;28;20035;-69
2023/07/30 11:27:49;;;;;;;0.45;0.32;;;;;;;;;;4975716;28;20042;-69
2023/07/30 11:30:14;;;;;;;0.70;0.40;;;;;;;;;;4972613;28;20042;-69
2023/07/30 11:32:41;;;;;;;0.45;0.38;;;;;;;;;;4975515;28;20043;-69
2023/07/30 11:35:07;;;;;;;0.90;0.40;;;;;;;;;;4975748;28;20027;-69
2023/07/30 11:37:32;;;;;;;1.55;0.40;;;;;;;;;;4974281;28;20517;-69
2023/07/30 11:39:58;;;;;;;0.45;0.30;;;;;;;;;;4974433;28;20045;-69
2023/07/30 11:42:23;;;;;;;0.20;0.20;;;;;;;;;;4975639;28;20442;-69
2023/07/30 11:44:49;;;;;;;0.30;0.30;;;;;;;;;;4975624;28;20035;-69
2023/07/30 11:47:21;;;;;;;0.30;0.30;;;;;;;;;;4972538;28;20050;-69
2023/07/30 11:49:57;;;;;;;0.43;0.30;;;;;;;;;;4974480;28;20035;-70
2023/07/30 11:52:22;;;;;;;0.65;0.30;;;;;;;;;;4972935;28;20046;-69
2023/07/30 11:54:48;;;;;;;0.60;0.50;;;;;;;;;;4975361;28;20422;-68
2023/07/30 11:57:13;;;;;;;0.60;0.50;;;;;;;;;;4975400;28;20457;-67
2023/07/30 11:59:39;;;;;;;0.40;0.40;;;;;;;;;;4975254;28;20046;-69
2023/07/30 12:02:04;;;;;;;0.28;0.28;;;;;;;;;;4975216;28;20467;-69
2023/07/30 12:04:45;;;;;;;0.20;0.20;;;;;;;;;;4975321;28;20027;-69
2023/07/30 12:07:10;;;;;;;0.22;0.22;;;;;;;;;;4974381;28;20130;-69
2023/07/30 12:09:36;;;;;;;0.40;0.40;;;;;;;;;;4972801;28;20451;-70
2023/07/30 12:12:01;;;;;;;1.33;0.40;;;;;;;;;;4975222;28;20438;-69
2023/07/30 12:14:32;;;;;;;0.30;0.30;;;;;;;;;;4975012;28;20127;-69
2023/07/30 12:17:01;;;;;;;0.20;0.20;;;;;;;;;;4973995;28;20034;-69
2023/07/30 12:19:26;;;;;;;0.52;0.38;;;;;;;;;;4974868;28;20042;-69
2023/07/30 12:21:51;;;;;;;0.43;0.30;;;;;;;;;;4974944;28;20041;-69
2023/07/30 12:24:17;;;;;;;0.88;0.50;;;;;;;;;;4974829;28;20432;-69
2023/07/30 12:26:42;;;;;;;0.45;0.35;;;;;;;;;;4972611;28;20130;-69
2023/07/30 12:29:07;;;;;;;0.60;0.30;;;;;;;;;;4974738;28;20097;-69
2023/07/30 12:31:33;;;;;;;0.47;0.30;;;;;;;;;;4973436;28;20031;-69
2023/07/30 12:33:58;;;;;;;0.50;0.30;;;;;;;;;;4967582;28;20043;-69
2023/07/30 12:36:23;;;;;;;0.30;0.30;;;;;;;;;;4974624;28;20031;-70
2023/07/30 12:38:49;;;;;;;0.32;0.30;;;;;;;;;;4974717;28;20110;-70
2023/07/30 12:41:14;;;;;;;0.30;0.30;;;;;;;;;;4974663;28;20063;-69
2023/07/30 12:43:40;;;;;;;0.25;0.25;;;;;;;;;;4974514;28;20046;-70
2023/07/30 12:46:05;;;;;;;0.30;0.30;;;;;;;;;;4974605;28;20027;-70
2023/07/30 12:48:30;;;;;;;0.30;0.30;;;;;;;;;;4974546;28;20050;-69
2023/07/30 12:50:56;;;;;;;0.60;0.40;;;;;;;;;;4974611;28;20411;-67
2023/07/30 12:53:21;;;;;;;0.60;0.47;;;;;;;;;;4974284;28;20035;-67
2023/07/30 12:55:46;;;;;;;0.98;0.38;;;;;;;;;;4974369;28;20054;-67
2023/07/30 12:58:12;;;;;;;0.22;0.22;;;;;;;;;;4973343;28;20034;-69
2023/07/30 13:00:37;;;;;;;0.75;0.50;;;;;;;;;;4972618;28;20050;-70
2023/07/30 13:03:02;;;;;;;0.52;0.43;;;;;;;;;;4974483;28;20352;-69
2023/07/30 13:05:28;;;;;;;1.20;0.50;;;;;;;;;;4974484;28;20399;-69
2023/07/30 13:07:53;;;;;;;1.77;0.70;;;;;;;;;;4972682;28;20058;-70
2023/07/30 13:10:19;;;;;;;0.90;0.60;;;;;;;;;;4974277;28;20038;-69
2023/07/30 13:12:44;;;;;;;1.45;0.65;;;;;;;;;;4974412;28;20094;-69
2023/07/30 13:15:10;;;;;;;1.27;0.45;;;;;;;;;;4974032;28;20027;-69
2023/07/30 13:17:35;;;;;;;0.30;0.30;;;;;;;;;;4975064;28;20039;-69
2023/07/30 13:20:01;;;;;;;2.38;0.63;;;;;;;;;;4976849;28;20109;-69
2023/07/30 13:22:26;;;;;;;1.10;0.70;;;;;;;;;;4978026;28;20038;-69
2023/07/30 13:24:51;;;;;;;0.40;0.40;;;;;;;;;;4976945;28;20121;-70
2023/07/30 13:27:17;;;;;;;1.02;0.50;;;;;;;;;;4976507;28;20482;-69
2023/07/30 13:29:43;;;;;;;1.17;0.50;;;;;;;;;;4976526;28;20471;-69
2023/07/30 13:32:09;;;;;;;0.47;0.30;;;;;;;;;;4976978;28;20114;-69
2023/07/30 13:34:34;;;;;;;1.00;0.43;;;;;;;;;;4976848;28;20069;-69
2023/07/30 13:36:59;;;;;;;1.30;0.38;;;;;;;;;;4978006;28;20031;-70
2023/07/30 13:39:24;;;;;;;0.45;0.40;;;;;;;;;;4977802;28;20027;-69
2023/07/30 13:41:50;;;;;;;0.77;0.50;;;;;;;;;;4977808;28;20035;-69
2023/07/30 13:44:15;;;;;;;0.90;0.47;;;;;;;;;;4977861;28;20030;-69
2023/07/30 13:46:40;;;;;;;0.60;0.40;;;;;;;;;;4977848;28;20482;-69
2023/07/30 13:49:07;;;;;;;0.77;0.47;;;;;;;;;;4977678;28;20463;-69
2023/07/30 13:51:32;;;;;;;0.30;0.30;;;;;;;;;;4976544;28;20387;-69
2023/07/30 13:53:59;;;;;;;1.63;0.70;;;;;;;;;;4977125;28;20046;-70
2023/07/30 13:56:25;;;;;;;2.10;0.75;;;;;;;;;;4977551;28;20035;-69
2023/07/30 13:58:50;;;;;;;4.47;1.00;;;;;;;;;;4976145;28;20061;-69
2023/07/30 14:01:15;;;;;;;1.42;0.88;;;;;;;;;;4977666;28;20090;-69
2023/07/30 14:03:41;;;;;;;2.15;1.02;;;;;;;;;;4977406;28;20035;-69
2023/07/30 14:06:06;;;;;;;3.38;1.40;;;;;;;;;;4977260;28;20034;-69
2023/07/30 14:08:31;;;;;;;2.38;1.10;;;;;;;;;;4977319;28;20045;-70
2023/07/30 14:10:58;;;;;;;3.28;1.33;;;;;;;;;;4977053;28;20051;-70
2023/07/30 14:13:24;;;;;;;2.47;1.05;;;;;;;;;;4977179;28;20069;-69
2023/07/30 14:15:49;;;;;;;2.83;1.08;;;;;;;;;;4977115;28;20062;-69
2023/07/30 14:18:15;;;;;;;4.53;1.20;;;;;;;;;;4977282;28;20043;-69
2023/07/30 14:20:41;;;;;;;2.95;1.40;;;;;;;;;;4977107;28;20042;-69
2023/07/30 14:23:06;;;;;;;2.85;1.33;;;;;;;;;;4975572;28;20506;-69
2023/07/30 14:25:32;;;;;;;3.78;1.40;;;;;;;;;;4977130;28;20066;-69
2023/07/30 14:27:58;;;;;;;3.15;1.13;;;;;;;;;;4976853;28;20031;-69
2023/07/30 14:30:23;;;;;;;2.70;1.23;;;;;;;;;;4976467;28;20046;-69